Terminal Aerodrome Forecast
Issued by NWS

Home | Current Version | Previous Version | Text Only | Print | Product List | Glossary On
Versions: 1 2 3 4 5 6 7 8 9 10 11 12 13 14 15 16 17 18
000
FTUS44 KLZK 310156 AAA
TAFLLQ
TAF AMD
KLLQ 310156Z 3102/3124 08007KT P6SM -RA VCTS SCT025 BKN050CB OVC250
     FM310400 VRB04KT P6SM VCSH SCT040 BKN100 BKN250
     FM310700 VRB02KT P6SM FEW008 SCT015 SCT250
      TEMPO 3111/3114 4SM BR BKN015
     FM311500 21005KT P6SM SCT020 BKN035
     FM312000 20007KT P6SM VCTS SCT050CB BKN250=

USA.gov is the U.S. government's official web portal to all federal, state and local government web resources and services.